createdAt,value
2022-07-25T00:01:58.108Z,4.10
2022-07-25T00:04:27.960Z,4.23
2022-07-25T00:06:55.955Z,4.80
2022-07-25T00:09:23.725Z,5.00
2022-07-25T00:11:51.113Z,4.10
2022-07-25T00:14:18.496Z,4.67
2022-07-25T00:16:45.770Z,4.80
2022-07-25T00:19:13.077Z,5.47
2022-07-25T00:21:40.463Z,4.83
2022-07-25T00:24:08.358Z,5.27
2022-07-25T00:26:39.918Z,5.30
2022-07-25T00:29:08.376Z,4.53
2022-07-25T00:31:36.195Z,4.80
2022-07-25T00:34:04.544Z,5.00
2022-07-25T00:36:32.590Z,5.00
2022-07-25T00:38:59.804Z,5.60
2022-07-25T00:41:27.182Z,4.83
2022-07-25T00:43:54.746Z,5.03
2022-07-25T00:46:22.293Z,5.10
2022-07-25T00:48:51.465Z,4.50
2022-07-25T00:51:19.589Z,6.00
2022-07-25T00:53:47.325Z,5.50
2022-07-25T00:56:15.837Z,4.93
2022-07-25T00:58:45.721Z,5.00
2022-07-25T01:01:13.545Z,4.90
2022-07-25T01:03:40.974Z,5.57
2022-07-25T01:06:09.096Z,4.70
2022-07-25T01:08:36.579Z,4.40
2022-07-25T01:11:04.478Z,5.03
2022-07-25T01:13:35.270Z,6.03
2022-07-25T01:16:02.626Z,5.70
2022-07-25T01:18:30.120Z,6.03
2022-07-25T01:20:58.034Z,6.60
2022-07-25T01:23:25.454Z,6.03
2022-07-25T01:25:52.650Z,6.17
2022-07-25T01:28:20.667Z,6.13
2022-07-25T01:30:48.289Z,6.40
2022-07-25T01:33:17.287Z,5.80
2022-07-25T01:35:46.334Z,5.67
2022-07-25T01:38:16.574Z,4.63
2022-07-25T01:40:45.869Z,4.97
2022-07-25T01:43:14.738Z,5.27
2022-07-25T01:45:42.167Z,5.00
2022-07-25T01:48:09.541Z,5.57
2022-07-25T01:50:37.700Z,5.07
2022-07-25T01:53:05.675Z,5.60
2022-07-25T01:55:33.104Z,4.87
2022-07-25T01:58:00.635Z,5.40
2022-07-25T02:00:28.422Z,5.20
2022-07-25T02:03:14.101Z,5.00
2022-07-25T02:05:42.170Z,5.13
2022-07-25T02:08:09.921Z,5.07
2022-07-25T02:10:38.611Z,5.23
2022-07-25T02:13:06.087Z,6.20
2022-07-25T02:15:33.366Z,5.23
2022-07-25T02:18:00.569Z,4.83
2022-07-25T02:20:28.049Z,6.73
2022-07-25T02:22:55.350Z,6.97
2022-07-25T02:25:22.907Z,7.07
2022-07-25T02:27:50.387Z,7.50
2022-07-25T02:30:19.270Z,7.17
2022-07-25T02:32:46.607Z,7.77
2022-07-25T02:35:14.171Z,6.77
2022-07-25T02:37:42.307Z,7.17
2022-07-25T02:40:10.279Z,6.40
2022-07-25T02:42:38.834Z,6.80
2022-07-25T02:45:07.087Z,6.20
2022-07-25T02:47:34.543Z,6.80
2022-07-25T02:50:02.120Z,5.97
2022-07-25T02:52:29.367Z,6.40
2022-07-25T02:54:56.509Z,6.40
2022-07-25T02:57:23.890Z,6.17
2022-07-25T02:59:51.156Z,6.10
2022-07-25T03:02:18.902Z,6.23
2022-07-25T03:04:46.485Z,5.87
2022-07-25T03:07:13.879Z,6.63
2022-07-25T03:09:41.052Z,6.70
2022-07-25T03:12:08.619Z,6.57
2022-07-25T03:14:36.017Z,6.97
2022-07-25T03:17:03.296Z,6.70
2022-07-25T03:19:31.163Z,8.20
2022-07-25T03:21:58.385Z,8.13
2022-07-25T03:24:25.673Z,7.40
2022-07-25T03:26:53.187Z,8.03
2022-07-25T03:29:20.535Z,7.83
2022-07-25T03:31:48.196Z,7.90
2022-07-25T03:34:15.768Z,8.20
2022-07-25T03:36:43.298Z,7.73
2022-07-25T03:39:10.583Z,8.47
2022-07-25T03:41:38.089Z,8.77
2022-07-25T03:44:05.581Z,8.23
2022-07-25T03:46:33.021Z,7.40
2022-07-25T03:49:00.715Z,8.87
2022-07-25T03:51:27.991Z,8.77
2022-07-25T03:54:04.588Z,9.30
2022-07-25T03:56:48.807Z,9.20
2022-07-25T03:59:18.895Z,8.33
2022-07-25T04:01:48.602Z,8.37
2022-07-25T04:04:16.821Z,9.87
2022-07-25T04:06:44.274Z,10.10
2022-07-25T04:09:12.300Z,9.63
2022-07-25T04:11:40.662Z,9.73
2022-07-25T04:14:08.600Z,9.40
2022-07-25T04:16:36.910Z,9.13
2022-07-25T04:19:06.251Z,9.00
2022-07-25T04:21:34.147Z,9.63
2022-07-25T04:24:01.877Z,8.80
2022-07-25T04:26:29.856Z,9.03
2022-07-25T04:28:58.884Z,9.73
2022-07-25T04:31:26.845Z,9.83
2022-07-25T04:33:54.272Z,9.83
2022-07-25T04:36:23.807Z,10.43
2022-07-25T04:38:53.965Z,9.80
2022-07-25T04:41:21.269Z,10.73
2022-07-25T04:43:49.473Z,9.53
2022-07-25T04:46:20.975Z,11.37
2022-07-25T04:48:49.420Z,10.00
2022-07-25T04:51:17.875Z,10.83
2022-07-25T04:53:45.743Z,9.90
2022-07-25T04:56:13.419Z,10.70
2022-07-25T04:58:41.185Z,9.77
2022-07-25T05:01:08.969Z,8.17
2022-07-25T05:03:36.583Z,9.27
2022-07-25T05:06:04.733Z,9.17
2022-07-25T05:08:32.272Z,9.63
2022-07-25T05:10:59.541Z,8.30
2022-07-25T05:13:26.843Z,9.10
2022-07-25T05:15:54.474Z,9.68
2022-07-25T05:18:22.240Z,10.17
2022-07-25T05:20:49.533Z,9.07
2022-07-25T05:23:19.825Z,10.75
2022-07-25T05:25:47.290Z,9.48
2022-07-25T05:28:15.089Z,9.75
2022-07-25T05:30:42.668Z,8.43
2022-07-25T05:33:10.173Z,8.73
2022-07-25T05:35:37.479Z,7.35
2022-07-25T05:38:05.331Z,7.30
2022-07-25T05:40:32.579Z,7.25
2022-07-25T05:43:03.303Z,6.78
2022-07-25T05:45:31.763Z,7.35
2022-07-25T05:47:59.675Z,8.60
2022-07-25T05:50:26.828Z,5.78
2022-07-25T05:52:54.238Z,6.53
2022-07-25T05:55:25.936Z,6.05
2022-07-25T05:57:54.475Z,5.95
2022-07-25T06:00:23.495Z,6.15
2022-07-25T06:02:51.275Z,5.22
2022-07-25T06:05:20.713Z,4.25
2022-07-25T06:07:52.017Z,5.03
2022-07-25T06:10:20.034Z,4.57
2022-07-25T06:12:48.775Z,4.50
2022-07-25T06:15:22.589Z,4.93
2022-07-25T06:17:55.310Z,4.60
2022-07-25T06:20:23.589Z,4.60
2022-07-25T06:22:51.239Z,4.60
2022-07-25T06:25:18.924Z,4.63
2022-07-25T06:27:48.390Z,4.55
2022-07-25T06:30:21.018Z,4.30
2022-07-25T06:32:54.434Z,4.80
2022-07-25T06:38:19.922Z,4.47
2022-07-25T06:40:48.874Z,4.15
2022-07-25T06:43:16.206Z,3.67
2022-07-25T06:45:51.666Z,3.80
2022-07-25T06:48:19.287Z,3.58
2022-07-25T06:50:47.253Z,4.32
2022-07-25T06:53:14.426Z,3.80
2022-07-25T06:55:41.940Z,4.13
2022-07-25T06:58:09.443Z,4.07
2022-07-25T07:00:36.714Z,3.97
2022-07-25T07:03:04.626Z,5.03
2022-07-25T07:05:33.951Z,3.85
2022-07-25T07:08:01.648Z,3.88
2022-07-25T07:10:29.750Z,3.60
2022-07-25T07:13:04.266Z,2.90
2022-07-25T07:15:35.266Z,2.83
2022-07-25T07:18:02.448Z,3.17
2022-07-25T07:20:29.916Z,3.25
2022-07-25T07:22:57.376Z,3.35
2022-07-25T07:25:28.253Z,3.05
2022-07-25T07:27:55.797Z,3.00
2022-07-25T07:30:25.485Z,3.40
2022-07-25T07:33:00.905Z,2.65
2022-07-25T07:35:28.478Z,2.65
2022-07-25T07:38:02.180Z,2.70
2022-07-25T07:40:29.760Z,2.58
2022-07-25T07:42:58.618Z,2.13
2022-07-25T07:45:26.189Z,2.63
2022-07-25T07:47:55.440Z,2.22
2022-07-25T07:50:24.899Z,2.80
2022-07-25T07:52:53.774Z,2.30
2022-07-25T07:55:40.075Z,2.45
2022-07-25T07:58:07.550Z,2.80
2022-07-25T08:00:39.577Z,2.40
2022-07-25T08:03:08.904Z,3.05
2022-07-25T08:05:43.041Z,1.85
2022-07-25T08:08:13.174Z,2.65
2022-07-25T08:10:44.158Z,1.92
2022-07-25T08:13:17.100Z,2.13
2022-07-25T08:15:46.628Z,1.90
2022-07-25T08:18:18.000Z,1.60
2022-07-25T08:20:49.855Z,2.33
2022-07-25T08:23:17.787Z,2.85
2022-07-25T08:25:45.826Z,1.42
2022-07-25T08:28:14.407Z,1.40
2022-07-25T08:30:42.325Z,1.67
2022-07-25T08:33:13.774Z,1.73
2022-07-25T08:35:46.997Z,1.50
2022-07-25T08:38:14.361Z,1.42
2022-07-25T08:40:41.677Z,1.50
2022-07-25T08:43:13.911Z,1.70
2022-07-25T08:45:49.196Z,1.30
2022-07-25T08:51:05.963Z,1.60
2022-07-25T08:53:35.096Z,1.63
2022-07-25T08:56:13.392Z,1.50
2022-07-25T08:58:43.789Z,1.42
2022-07-25T09:01:13.258Z,1.73
2022-07-25T09:03:41.843Z,1.77
2022-07-25T09:06:22.601Z,1.13
2022-07-25T09:08:58.770Z,1.60
2022-07-25T09:11:32.603Z,1.70
2022-07-25T09:14:09.571Z,1.55
2022-07-25T09:16:40.987Z,1.40
2022-07-25T09:19:13.887Z,1.90
2022-07-25T09:21:44.112Z,1.90
2022-07-25T09:24:17.132Z,1.40
2022-07-25T09:26:54.468Z,1.50
2022-07-25T09:34:00.678Z,1.77
2022-07-25T09:36:28.156Z,1.58
2022-07-25T09:39:01.351Z,1.50
2022-07-25T09:41:43.040Z,1.60
2022-07-25T09:44:31.464Z,1.20
2022-07-25T09:47:15.386Z,1.15
2022-07-25T09:49:45.778Z,1.20
2022-07-25T09:52:16.111Z,1.42
2022-07-25T09:54:46.237Z,1.40
2022-07-25T09:57:15.451Z,1.40
2022-07-25T09:59:45.741Z,1.45
2022-07-25T10:03:03.246Z,1.38
2022-07-25T10:05:41.140Z,1.50
2022-07-25T10:08:09.843Z,1.27
2022-07-25T10:10:41.813Z,1.10
2022-07-25T10:13:18.227Z,1.50
2022-07-25T10:15:54.298Z,1.13
2022-07-25T10:22:56.603Z,1.30
2022-07-25T10:25:25.821Z,1.30
2022-07-25T10:28:03.341Z,0.93
2022-07-25T10:30:38.762Z,0.60
2022-07-25T10:33:19.400Z,1.05
2022-07-25T10:35:49.218Z,1.25
2022-07-25T10:38:25.266Z,1.45
2022-07-25T10:41:00.274Z,1.65
2022-07-25T10:43:31.132Z,1.73
2022-07-25T10:46:00.538Z,1.20
2022-07-25T10:48:33.261Z,1.65
2022-07-25T10:51:06.738Z,1.20
2022-07-25T10:53:38.568Z,0.85
2022-07-25T10:56:17.893Z,0.95
2022-07-25T10:58:54.238Z,1.05
2022-07-25T11:01:34.363Z,1.08
2022-07-25T11:04:04.508Z,0.88
2022-07-25T11:06:42.718Z,1.10
2022-07-25T11:09:25.073Z,1.10
2022-07-25T11:11:58.431Z,1.30
2022-07-25T11:14:34.911Z,1.75
2022-07-25T11:17:21.169Z,0.95
2022-07-25T11:19:59.797Z,1.63
2022-07-25T11:22:30.342Z,1.35
2022-07-25T11:24:58.747Z,1.00
2022-07-25T11:27:27.703Z,1.17
2022-07-25T11:30:10.478Z,1.60
2022-07-25T11:32:53.614Z,0.93
2022-07-25T11:35:32.150Z,1.30
2022-07-25T11:38:02.559Z,1.38
2022-07-25T11:40:31.589Z,0.73
2022-07-25T11:43:00.140Z,0.80
2022-07-25T11:45:31.389Z,1.63
2022-07-25T11:48:11.639Z,1.00
2022-07-25T11:50:41.113Z,0.90
2022-07-25T11:53:14.903Z,1.05
2022-07-25T11:55:43.650Z,1.08
2022-07-25T11:58:13.134Z,0.88
2022-07-25T12:00:45.523Z,0.90
2022-07-25T12:03:19.982Z,0.90
2022-07-25T12:05:49.350Z,0.80
2022-07-25T12:08:23.198Z,1.10
2022-07-25T12:10:51.735Z,0.75
2022-07-25T12:13:28.005Z,0.70
2022-07-25T12:15:57.973Z,0.80
2022-07-25T12:18:26.240Z,1.10
2022-07-25T12:20:53.492Z,0.90
2022-07-25T12:23:22.109Z,0.75
2022-07-25T12:25:50.076Z,0.75
2022-07-25T12:28:18.005Z,0.90
2022-07-25T12:30:49.497Z,0.90
2022-07-25T12:33:19.159Z,0.85
2022-07-25T12:35:46.444Z,0.50
2022-07-25T12:38:15.426Z,1.10
2022-07-25T12:40:44.751Z,1.08
2022-07-25T12:43:12.279Z,0.60
2022-07-25T12:45:40.403Z,0.68
2022-07-25T12:48:09.371Z,0.70
2022-07-25T12:50:37.010Z,0.60
2022-07-25T12:53:04.725Z,0.73
2022-07-25T12:55:32.619Z,0.40
2022-07-25T12:58:00.439Z,0.90
2022-07-25T13:00:28.130Z,1.13
2022-07-25T13:02:57.268Z,0.90
2022-07-25T13:05:25.867Z,0.80
2022-07-25T13:07:53.548Z,0.70
2022-07-25T13:10:21.237Z,2.45
2022-07-25T13:12:48.809Z,0.90
2022-07-25T13:15:18.284Z,1.00
2022-07-25T13:17:48.377Z,0.90
2022-07-25T13:20:15.918Z,0.60
2022-07-25T13:22:43.224Z,1.63
2022-07-25T13:25:11.060Z,1.15
2022-07-25T13:27:38.963Z,5.88
2022-07-25T13:30:07.684Z,1.00
2022-07-25T13:32:35.740Z,1.10
2022-07-25T13:35:04.000Z,0.82
2022-07-25T13:37:32.933Z,1.08
2022-07-25T13:40:00.937Z,1.17
2022-07-25T13:42:28.369Z,1.45
2022-07-25T13:44:55.610Z,0.90
2022-07-25T13:47:26.894Z,0.88
2022-07-25T13:49:58.048Z,1.13
2022-07-25T13:52:25.785Z,0.93
2022-07-25T13:54:53.061Z,0.82
2022-07-25T13:57:20.357Z,0.88
2022-07-25T13:59:47.856Z,0.98
2022-07-25T14:02:15.299Z,1.00
2022-07-25T14:04:42.612Z,1.63
2022-07-25T14:07:10.182Z,2.17
2022-07-25T14:09:38.050Z,1.50
2022-07-25T14:12:05.551Z,1.17
2022-07-25T14:14:33.220Z,1.30
2022-07-25T14:17:00.961Z,0.80
2022-07-25T14:19:29.531Z,1.20
2022-07-25T14:21:58.100Z,0.80
2022-07-25T14:24:33.853Z,0.90
2022-07-25T14:27:02.682Z,1.00
2022-07-25T14:29:30.761Z,1.88
2022-07-25T14:31:58.552Z,1.05
2022-07-25T14:34:26.221Z,1.13
2022-07-25T14:36:53.474Z,1.05
2022-07-25T14:39:20.779Z,1.10
2022-07-25T14:41:48.402Z,1.30
2022-07-25T14:44:15.802Z,1.27
2022-07-25T14:46:44.210Z,0.90
2022-07-25T14:49:14.478Z,1.70
2022-07-25T14:51:43.377Z,1.30
2022-07-25T14:54:10.580Z,1.63
2022-07-25T14:56:44.282Z,1.38
2022-07-25T14:59:11.788Z,1.00
2022-07-25T15:01:40.655Z,1.10
2022-07-25T15:04:08.270Z,1.70
2022-07-25T15:06:36.218Z,1.20
2022-07-25T15:09:06.210Z,1.45
2022-07-25T15:11:33.841Z,1.30
2022-07-25T15:14:01.132Z,1.25
2022-07-25T15:16:28.837Z,1.40
2022-07-25T15:21:46.229Z,1.25
2022-07-25T15:24:14.056Z,1.02
2022-07-25T15:26:41.522Z,1.40
2022-07-25T15:29:10.643Z,1.38
2022-07-25T15:31:38.922Z,1.40
2022-07-25T15:34:06.278Z,1.10
2022-07-25T15:36:33.908Z,1.20
2022-07-25T15:39:01.551Z,1.20
2022-07-25T15:41:28.991Z,1.65
2022-07-25T15:43:56.624Z,1.50
2022-07-25T15:46:23.985Z,1.30
2022-07-25T15:48:51.449Z,1.45
2022-07-25T15:51:19.847Z,1.45
2022-07-25T15:53:47.707Z,1.60
2022-07-25T15:56:16.319Z,1.30
2022-07-25T15:58:44.436Z,1.42
2022-07-25T16:01:11.924Z,1.60
2022-07-25T16:03:39.494Z,1.40
2022-07-25T16:06:07.044Z,1.15
2022-07-25T16:08:36.493Z,1.30
2022-07-25T16:11:04.789Z,1.63
2022-07-25T16:13:32.734Z,1.55
2022-07-25T16:16:00.030Z,1.42
2022-07-25T16:18:27.617Z,1.45
2022-07-25T16:20:55.145Z,1.63
2022-07-25T16:23:26.096Z,1.55
2022-07-25T16:25:53.577Z,1.63
2022-07-25T16:28:21.045Z,1.27
2022-07-25T16:30:49.240Z,1.30
2022-07-25T16:33:17.280Z,1.60
2022-07-25T16:35:44.782Z,1.90
2022-07-25T16:38:12.152Z,1.73
2022-07-25T16:40:39.842Z,1.58
2022-07-25T16:43:07.408Z,1.33
2022-07-25T16:45:36.625Z,1.40
2022-07-25T16:48:06.224Z,1.60
2022-07-25T16:50:33.692Z,1.15
2022-07-25T16:53:00.872Z,1.50
2022-07-25T16:55:28.286Z,1.48
2022-07-25T16:57:55.764Z,1.38
2022-07-25T17:00:23.280Z,1.23
2022-07-25T17:02:51.124Z,1.63
2022-07-25T17:05:18.700Z,1.40
2022-07-25T17:07:46.802Z,1.65
2022-07-25T17:10:14.162Z,2.03
2022-07-25T17:12:41.821Z,1.17
2022-07-25T17:15:09.671Z,1.65
2022-07-25T17:17:37.099Z,1.40
2022-07-25T17:20:05.564Z,2.00
2022-07-25T17:22:32.943Z,1.30
2022-07-25T17:25:00.264Z,1.63
2022-07-25T17:27:27.931Z,1.55
2022-07-25T17:29:55.151Z,1.60
2022-07-25T17:32:26.405Z,1.67
2022-07-25T17:34:57.743Z,1.35
2022-07-25T17:37:27.854Z,1.45
2022-07-25T17:39:55.348Z,1.63
2022-07-25T17:42:22.865Z,1.85
2022-07-25T17:44:52.510Z,1.60
2022-07-25T17:47:20.563Z,2.00
2022-07-25T17:49:49.828Z,1.50
2022-07-25T17:52:17.962Z,1.33
2022-07-25T17:54:45.392Z,1.73
2022-07-25T17:57:12.988Z,1.50
2022-07-25T17:59:40.522Z,1.50
2022-07-25T18:02:07.959Z,1.92
2022-07-25T18:04:36.350Z,1.60
2022-07-25T18:07:04.906Z,2.00
2022-07-25T18:09:32.671Z,2.00
2022-07-25T18:12:00.465Z,1.85
2022-07-25T18:14:28.280Z,1.70
2022-07-25T18:16:55.701Z,2.30
2022-07-25T18:19:26.661Z,1.80
2022-07-25T18:21:54.444Z,2.28
2022-07-25T18:24:24.822Z,1.85
2022-07-25T18:26:58.959Z,1.90
2022-07-25T18:29:26.499Z,2.33
2022-07-25T18:31:53.825Z,1.92
2022-07-25T18:34:21.308Z,2.10
2022-07-25T18:36:48.533Z,2.53
2022-07-25T18:39:16.315Z,2.40
2022-07-25T18:41:43.788Z,2.55
2022-07-25T18:44:11.122Z,2.63
2022-07-25T18:46:38.562Z,2.22
2022-07-25T18:49:08.960Z,2.70
2022-07-25T18:51:36.435Z,2.42
2022-07-25T18:54:04.149Z,1.95
2022-07-25T18:56:31.942Z,3.45
2022-07-25T18:58:59.572Z,2.40
2022-07-25T19:01:27.608Z,2.30
2022-07-25T19:03:57.460Z,2.65
2022-07-25T19:06:24.882Z,2.67
2022-07-25T19:08:52.921Z,2.90
2022-07-25T19:11:20.508Z,2.47
2022-07-25T19:13:49.984Z,2.30
2022-07-25T19:16:19.367Z,2.72
2022-07-25T19:18:47.595Z,2.40
2022-07-25T19:21:15.515Z,2.88
2022-07-25T19:23:50.164Z,3.00
2022-07-25T19:26:22.510Z,2.80
2022-07-25T19:28:51.386Z,3.55
2022-07-25T19:31:19.490Z,3.15
2022-07-25T19:33:47.442Z,2.75
2022-07-25T19:36:15.447Z,2.65
2022-07-25T19:38:43.236Z,3.05
2022-07-25T19:41:10.704Z,2.85
2022-07-25T19:43:38.109Z,2.90
2022-07-25T19:46:06.031Z,3.17
2022-07-25T19:48:33.920Z,2.47
2022-07-25T19:51:01.465Z,2.92
2022-07-25T19:53:29.011Z,3.42
2022-07-25T19:55:56.428Z,3.08
2022-07-25T19:58:23.808Z,2.60
2022-07-25T20:00:52.413Z,2.65
2022-07-25T20:03:23.236Z,3.03
2022-07-25T20:05:51.273Z,2.67
2022-07-25T20:08:19.078Z,3.28
2022-07-25T20:10:47.524Z,3.10
2022-07-25T20:13:15.281Z,2.88
2022-07-25T20:15:42.773Z,2.78
2022-07-25T20:18:10.372Z,2.55
2022-07-25T20:20:37.742Z,2.80
2022-07-25T20:23:05.634Z,2.30
2022-07-25T20:25:33.086Z,2.75
2022-07-25T20:28:00.851Z,2.28
2022-07-25T20:30:34.656Z,2.55
2022-07-25T20:33:05.438Z,2.17
2022-07-25T20:35:38.003Z,2.45
2022-07-25T20:38:10.084Z,2.53
2022-07-25T20:40:43.924Z,2.70
2022-07-25T20:43:15.618Z,2.47
2022-07-25T20:45:43.329Z,2.10
2022-07-25T20:48:10.863Z,2.58
2022-07-25T20:50:39.639Z,2.90
2022-07-25T20:53:07.562Z,2.75
2022-07-25T20:55:36.012Z,3.00
2022-07-25T20:58:04.630Z,3.03
2022-07-25T21:00:32.537Z,2.78
2022-07-25T21:03:00.609Z,2.75
2022-07-25T21:05:28.645Z,2.80
2022-07-25T21:07:56.883Z,2.47
2022-07-25T21:10:24.678Z,2.30
2022-07-25T21:12:52.502Z,2.35
2022-07-25T21:15:20.204Z,3.10
2022-07-25T21:17:47.632Z,2.65
2022-07-25T21:20:15.536Z,2.55
2022-07-25T21:22:43.981Z,2.60
2022-07-25T21:25:11.713Z,2.72
2022-07-25T21:27:39.258Z,3.22
2022-07-25T21:30:08.676Z,2.63
2022-07-25T21:32:36.487Z,2.40
2022-07-25T21:35:05.592Z,2.55
2022-07-25T21:37:33.297Z,2.42
2022-07-25T21:40:00.773Z,3.22
2022-07-25T21:42:28.236Z,2.78
2022-07-25T21:44:55.699Z,2.60
2022-07-25T21:47:22.980Z,3.08
2022-07-25T21:50:08.997Z,2.22
2022-07-25T21:52:36.475Z,2.67
2022-07-25T21:55:05.195Z,2.10
2022-07-25T21:57:33.027Z,2.83
2022-07-25T22:00:00.721Z,2.10
2022-07-25T22:02:27.952Z,2.53
2022-07-25T22:04:55.203Z,2.58
2022-07-25T22:07:23.050Z,2.95
2022-07-25T22:09:50.701Z,2.70
2022-07-25T22:12:17.943Z,2.45
2022-07-25T22:14:45.314Z,2.63
2022-07-25T22:17:13.764Z,2.20
2022-07-25T22:19:41.328Z,3.25
2022-07-25T22:22:08.665Z,3.10
2022-07-25T22:24:35.823Z,2.83
2022-07-25T22:27:03.387Z,2.55
2022-07-25T22:29:30.671Z,2.90
2022-07-25T22:31:58.145Z,2.67
2022-07-25T22:34:25.516Z,2.35
2022-07-25T22:36:53.063Z,2.65
2022-07-25T22:39:20.606Z,2.85
2022-07-25T22:41:47.960Z,2.25
2022-07-25T22:44:15.613Z,2.53
2022-07-25T22:46:43.073Z,2.33
2022-07-25T22:49:10.663Z,2.38
2022-07-25T22:51:38.462Z,2.50
2022-07-25T22:54:05.884Z,2.58
2022-07-25T22:56:33.227Z,2.40
2022-07-25T22:59:00.678Z,2.80
2022-07-25T23:01:27.876Z,2.83
2022-07-25T23:03:55.173Z,2.40
2022-07-25T23:06:22.725Z,2.92
2022-07-25T23:08:50.118Z,3.20
2022-07-25T23:11:17.889Z,3.17
2022-07-25T23:13:45.399Z,3.05
2022-07-25T23:16:12.786Z,2.75
2022-07-25T23:18:39.992Z,2.58
2022-07-25T23:21:07.482Z,2.63
2022-07-25T23:23:34.873Z,2.60
2022-07-25T23:26:03.187Z,3.28
2022-07-25T23:28:30.673Z,2.75
2022-07-25T23:30:57.918Z,2.45
2022-07-25T23:33:25.964Z,3.03
2022-07-25T23:35:54.309Z,2.42
2022-07-25T23:38:22.195Z,2.55
2022-07-25T23:40:50.189Z,2.92
2022-07-25T23:43:19.438Z,3.00
2022-07-25T23:46:05.535Z,3.25
2022-07-25T23:48:34.808Z,2.67
2022-07-25T23:51:01.920Z,2.80
2022-07-25T23:53:29.089Z,2.63
2022-07-25T23:55:56.427Z,2.45
2022-07-25T23:58:23.609Z,2.75
